Terminal Aerodrome Forecast
Issued by NWS Sioux Falls, SD

Home | Current Version | Previous Version | Graphics & Text | Print | Product List | Glossary On
Versions: 1 2 3 4 5 6 7 8 9 10 11 12 13 14 15 16 17 18 19 20 21 22 23 24 25 26 27 28 29 30 31 32 33
851
FTUS43 KFSD 141955 AAC
TAFSUX
TAF AMD
KSUX 141955Z 1420/1518 20014G19KT P6SM OVC011
     FM142300 20007KT P6SM OVC015
     FM150300 27008KT P6SM SCT015 BKN200
     FM150500 30012KT P6SM BKN200
     FM150700 31012KT P6SM SCT035
     FM150900 32014KT P6SM SKC=

USA.gov is the U.S. government's official web portal to all federal, state and local government web resources and services.